Yountville, CA (94599)

10:11 AM PDT on August 20, 2014 (GMT -0700)
Yountville Deli (Washington St) | Change Station
CLOSE
Current Station
Personal Weather Station
Location: Yountville, CA
Elevation: 98 ft
Nearby Weather Stations

Elev 98 ft 38.40 °N, 122.36 °W | Updated 29 seconds ago

Overcast
Overcast
64.1 °F
Feels Like 64.1 °F
N
3.5
Wind Variable Wind from WNW
Gusts 3.5 mph

Today
High -- | Low -- °F
--% Chance of Precip.
Yesterday
High -- | Low -- °F
Precip. -- in
6:28 AM 7:56 PM
Waning Crescent, 20% visible
Pressure 29.90 in
Visibility 10.0 miles
Clouds Overcast 1700 ft
Dew Point 58 °F
Humidity 82%
Rainfall 0.00 in
Snow Depth Not available.
UV 1 out of 12
Pollen 6.20 out of 12
Ozone Good
PM2.5 Good
Flu Activity Not available.
METAR KAPC 201654Z 30004KT 10SM OVC017 18/14 A2992 RMK AO2 SLP123 T01780139

More Conditions Fewer Conditions

Pressure 29.90 in
Visibility 10.0 miles
Clouds Overcast 1700 ft
Dew Point 58 °F
Humidity 82%
Rainfall 0.00 in
Snow Depth Not available.
UV 1 out of 12
Pollen 6.20 out of 12
Ozone Good
PM2.5 Good
Flu Activity Not available.
METAR KAPC 201654Z 30004KT 10SM OVC017 18/14 A2992 RMK AO2 SLP123 T01780139

More Conditions Fewer Conditions

10-Day Weather Forecast

Almanac

Astronomy

Aug. 20, 2014 Rise Set
Actual Time 6:28 AM PDT 7:56 PM PDT
Civil Twilight 6:00 AM PDT 8:24 PM PDT
Nautical Twilight 5:27 AM PDT 8:57 PM PDT
Astronomical Twilight 4:51 AM PDT 9:32 PM PDT
Moon 2:14 AM PDT 4:44 PM PDT
Length of Visible Light 14h 23m
Length of Day
13h 28m
Tomorrow will be 2m 16s shorter.
Waning Crescent, 20% of the Moon is Illuminated
Today
Waning Crescent
Aug 25
New
Sep 2
First Quarter
Sep 8
Full
Sep 15
Last Quarter

Today's Extremes

State Highs State Lows

Community

WunderPhotos

Upload Photos

1,745,694 photos uploaded!

WunderBlogs® & News

By Dr. Jeff Masters
Director of Meteorology, Weather Underground
By Kari Strenfel
Meteorologist, Weather Underground
By Christopher C. Burt
Weather Historian, Weather Underground
August 20, 2014
August 20, 2014
August 20, 2014

Nearby

Air Quality

  Air Quality AQ Index Pollutant
Yesterday Good
PM2.5
Yesterday Good
OZONE
Current Good
PM2.5
Current Good
OZONE
Wednesday Good
PM2.5
Thursday Good
PM2.5
Friday Good
PM2.5
Saturday Moderate
PM2.5
Sunday Moderate
PM2.5
Monday Moderate
PM2.5

Snow Depth

Station Depth Elevation
CSS Lab 2 in 6900 ft
Echo Peak 1 in 7800 ft
Fallen Leaf 0 in 6300 ft
Forestdale Creek 0 in 8029 ft
Blue Lakes 0 in 8000 ft

Earthquake Activity

City Distance Mag. Time & Date
The Geysers, California 33 miles 2.6 8:55 PM PDT
2014-08-13
Rio Dell, California 163 miles 2.5 6:16 PM PDT
2014-08-13
Upper Lake, California 70 miles 2.9 3:32 PM PDT
2014-08-13
Minimum magnitude displayed is 2.5.

Coastal Water Temperatures

Place Temperature
San Francisco, CA 64.0 °F
Richmond, CA 66.0 °F
Port Chicago, CA 69.1 °F

Nearby Weather Stations